Time;durP1;ratioP1;P1;durP2;ratioP2;P2;SDS_P1;SDS_P2;PMS_P1;PMS_P2;Temp;Humidity;BMP_temperature;BMP_pressure;BME280_temperature;BME280_humidity;BME280_pressure;Samples;Min_cycle;Max_cycle;Signal;HPM_P1;HPM_P2
2023/10/28 00:00:49;;;;;;;21.90;11.20;;;;;;;;;;5076477;28;20029;-70
2023/10/28 00:03:15;;;;;;;19.05;11.27;;;;;;;;;;5076421;28;20024;-70
2023/10/28 00:05:41;;;;;;;23.35;13.65;;;;;;;;;;5076568;28;20029;-70
2023/10/28 00:08:07;;;;;;;23.65;11.25;;;8.20;99.90;;;;;;5076022;28;20033;-70
2023/10/28 00:10:34;;;;;;;18.83;9.75;;;8.50;99.90;;;;;;5075490;28;20055;-70
2023/10/28 00:13:00;;;;;;;21.52;10.57;;;;;;;;;;5076519;28;20028;-71
2023/10/28 00:15:26;;;;;;;17.83;11.45;;;;;;;;;;5075875;28;20024;-73
2023/10/28 00:17:52;;;;;;;21.02;10.63;;;;;;;;;;5075982;28;20115;-70
2023/10/28 00:20:18;;;;;;;18.42;10.10;;;8.40;99.90;;;;;;5076158;28;20075;-70
2023/10/28 00:22:49;;;;;;;14.68;9.23;;;8.40;99.90;;;;;;5075998;28;20109;-70
2023/10/28 00:25:15;;;;;;;14.90;9.43;;;8.50;99.90;;;;;;5075924;28;20055;-70
2023/10/28 00:27:43;;;;;;;12.10;8.88;;;8.50;99.90;;;;;;5074911;28;20379;-70
2023/10/28 00:30:11;;;;;;;19.83;9.63;;;8.60;99.90;;;;;;5076190;28;20079;-72
2023/10/28 00:32:37;;;;;;;14.48;8.70;;;8.70;99.90;;;;;;5075874;28;20458;-70
2023/10/28 00:35:05;;;;;;;19.83;8.73;;;8.70;99.90;;;;;;5075897;28;20083;-70
2023/10/28 00:37:30;;;;;;;16.88;8.05;;;8.80;99.90;;;;;;5075682;28;20028;-71
2023/10/28 00:39:56;;;;;;;17.30;9.13;;;8.60;99.90;;;;;;5075428;28;20074;-70
2023/10/28 00:42:22;;;;;;;16.00;8.15;;;;;;;;;;5075908;28;20028;-70
2023/10/28 00:44:47;;;;;;;15.73;8.40;;;8.80;99.90;;;;;;5075915;28;20028;-70
2023/10/28 00:47:13;;;;;;;15.50;7.85;;;8.80;99.90;;;;;;5075023;28;20505;-70
2023/10/28 00:49:40;;;;;;;14.20;7.65;;;8.80;99.90;;;;;;5075335;28;20021;-70
2023/10/28 00:52:06;;;;;;;12.70;7.88;;;8.70;99.90;;;;;;5075140;28;20056;-70
2023/10/28 00:54:32;;;;;;;18.30;8.15;;;8.70;99.90;;;;;;5075437;28;20067;-70
2023/10/28 00:56:58;;;;;;;15.60;8.27;;;8.70;99.90;;;;;;5075481;28;20383;-70
2023/10/28 00:59:27;;;;;;;13.95;8.07;;;8.70;99.90;;;;;;5075547;28;20037;-70
2023/10/28 01:01:53;;;;;;;14.65;8.30;;;;;;;;;;5075268;28;20025;-71
2023/10/28 01:04:19;;;;;;;20.13;9.85;;;;;;;;;;5075144;28;20360;-70
2023/10/28 01:06:45;;;;;;;18.98;8.95;;;8.70;99.90;;;;;;5075283;28;20182;-70
2023/10/28 01:09:11;;;;;;;17.92;10.50;;;8.80;99.90;;;;;;5074798;28;20052;-70
2023/10/28 01:11:39;;;;;;;17.90;8.98;;;8.70;99.90;;;;;;5075045;28;20129;-71
2023/10/28 01:14:05;;;;;;;16.10;8.60;;;8.70;99.90;;;;;;5075276;28;20367;-70
2023/10/28 01:16:32;;;;;;;20.20;9.10;;;8.70;99.90;;;;;;5075192;28;20028;-70
2023/10/28 01:18:58;;;;;;;24.00;9.82;;;;;;;;;;5075221;28;20358;-70
2023/10/28 01:21:23;;;;;;;18.95;9.60;;;8.60;99.90;;;;;;5074837;28;20025;-70
2023/10/28 01:23:49;;;;;;;27.95;11.93;;;9.50;99.90;;;;;;5074836;28;20494;-70
2023/10/28 01:26:15;;;;;;;28.70;11.68;;;;;;;;;;5073763;28;20075;-70
2023/10/28 01:28:41;;;;;;;22.63;10.52;;;;;;;;;;5074748;28;20067;-70
2023/10/28 01:31:08;;;;;;;19.30;10.07;;;8.70;99.90;;;;;;5074637;28;20025;-70
2023/10/28 01:33:34;;;;;;;22.35;10.60;;;8.80;99.90;;;;;;5074713;28;20081;-70
2023/10/28 01:36:00;;;;;;;18.58;10.35;;;8.80;99.90;;;;;;5074586;28;20405;-71
2023/10/28 01:38:26;;;;;;;19.52;9.88;;;8.80;99.90;;;;;;5074816;28;20082;-70
2023/10/28 01:40:52;;;;;;;16.25;8.93;;;8.80;99.90;;;;;;5074169;28;20378;-71
2023/10/28 01:43:19;;;;;;;16.92;9.32;;;8.90;99.90;;;;;;5074659;28;20024;-70
2023/10/28 01:45:45;;;;;;;23.38;10.93;;;8.90;99.90;;;;;;5074123;28;20489;-70
2023/10/28 01:48:11;;;;;;;21.83;10.27;;;8.90;99.90;;;;;;5073541;28;20028;-72
2023/10/28 01:50:37;;;;;;;21.92;10.18;;;8.90;99.90;;;;;;5074122;28;20031;-70
2023/10/28 01:53:03;;;;;;;14.82;9.50;;;9.10;99.90;;;;;;5074299;28;20028;-70
2023/10/28 01:55:29;;;;;;;25.45;12.25;;;9.00;99.90;;;;;;5074529;28;20020;-72
2023/10/28 01:57:55;;;;;;;16.35;9.38;;;8.90;99.90;;;;;;5073257;28;20025;-71
2023/10/28 02:00:22;;;;;;;19.25;9.52;;;9.10;99.90;;;;;;5074216;28;20028;-71
2023/10/28 02:02:48;;;;;;;16.88;9.75;;;9.00;99.90;;;;;;5074068;28;20035;-71
2023/10/28 02:05:15;;;;;;;17.33;8.80;;;9.00;99.90;;;;;;5074438;28;20115;-71
2023/10/28 02:07:41;;;;;;;16.40;8.68;;;9.10;99.90;;;;;;5074101;28;20386;-71
2023/10/28 02:10:06;;;;;;;12.98;8.10;;;9.10;99.90;;;;;;5073773;28;20017;-70
2023/10/28 02:12:34;;;;;;;13.32;8.30;;;9.10;99.90;;;;;;5074116;28;20033;-71
2023/10/28 02:15:02;;;;;;;12.15;7.60;;;9.20;99.90;;;;;;5074288;28;20119;-70
2023/10/28 02:17:28;;;;;;;21.60;8.25;;;9.20;99.90;;;;;;5073738;28;20025;-71
2023/10/28 02:19:56;;;;;;;17.33;8.07;;;9.20;99.90;;;;;;5073266;28;20434;-71
2023/10/28 02:22:22;;;;;;;21.98;9.55;;;9.30;99.90;;;;;;5073953;28;20028;-70
2023/10/28 02:24:48;;;;;;;14.30;7.57;;;9.30;99.90;;;;;;5073771;28;20029;-70
2023/10/28 02:27:13;;;;;;;18.27;8.10;;;9.30;99.90;;;;;;5072864;28;20383;-70
2023/10/28 02:29:39;;;;;;;17.52;8.38;;;9.30;99.90;;;;;;5074174;28;20025;-71
2023/10/28 02:32:06;;;;;;;22.08;8.93;;;9.40;99.90;;;;;;5074149;28;20056;-71
2023/10/28 02:34:31;;;;;;;19.40;8.50;;;9.30;99.90;;;;;;5073393;28;20019;-74
2023/10/28 02:36:57;;;;;;;20.92;8.95;;;9.40;99.90;;;;;;5073369;28;20024;-72
2023/10/28 02:39:22;;;;;;;16.25;8.38;;;9.30;99.90;;;;;;5073180;28;20025;-71
2023/10/28 02:41:48;;;;;;;13.40;8.40;;;9.30;99.90;;;;;;5073482;28;20033;-70
2023/10/28 02:44:13;;;;;;;14.13;8.07;;;9.30;99.90;;;;;;5073375;28;20027;-71
2023/10/28 02:46:39;;;;;;;18.20;9.32;;;9.30;99.90;;;;;;5073367;28;20033;-70
2023/10/28 02:49:04;;;;;;;21.00;9.60;;;9.20;99.90;;;;;;5073402;28;20067;-70
2023/10/28 02:51:30;;;;;;;16.67;9.65;;;9.20;99.90;;;;;;5073630;28;20078;-70
2023/10/28 02:53:58;;;;;;;20.90;8.93;;;9.10;99.90;;;;;;5073704;28;20029;-71
2023/10/28 02:56:24;;;;;;;18.52;9.90;;;9.20;99.90;;;;;;5073225;28;20075;-70
2023/10/28 02:58:50;;;;;;;18.48;8.50;;;9.20;99.90;;;;;;5073489;28;20032;-71
2023/10/28 03:01:15;;;;;;;23.95;12.32;;;9.20;99.90;;;;;;5073636;28;20029;-71
2023/10/28 03:03:42;;;;;;;17.88;10.75;;;;;;;;;;5073528;28;20033;-70
2023/10/28 03:06:08;;;;;;;22.38;10.75;;;;;;;;;;5073544;28;20025;-71
2023/10/28 03:08:34;;;;;;;26.70;12.85;;;;;;;;;;5073479;28;20025;-71
2023/10/28 03:11:00;;;;;;;16.48;9.93;;;9.30;99.90;;;;;;5077445;28;20032;-71
2023/10/28 03:13:26;;;;;;;19.48;9.50;;;9.30;99.90;;;;;;5077031;28;20035;-71
2023/10/28 03:15:51;;;;;;;23.17;10.48;;;9.40;99.90;;;;;;5077597;28;20028;-71
2023/10/28 03:18:17;;;;;;;22.35;10.65;;;9.40;99.90;;;;;;5077024;28;20040;-71
2023/10/28 03:20:42;;;;;;;20.75;9.50;;;9.50;99.90;;;;;;5077460;28;20409;-70
2023/10/28 03:23:08;;;;;;;26.10;9.60;;;9.60;99.90;;;;;;5076915;28;20067;-71
2023/10/28 03:25:33;;;;;;;21.65;8.60;;;9.60;99.90;;;;;;5076847;28;20086;-71
2023/10/28 03:28:00;;;;;;;23.48;8.45;;;9.60;99.90;;;;;;5076726;28;20094;-71
2023/10/28 03:30:26;;;;;;;17.13;8.00;;;9.70;99.90;;;;;;5077229;28;20027;-71
2023/10/28 03:32:52;;;;;;;17.45;8.30;;;9.70;99.90;;;;;;5077258;28;20035;-71
2023/10/28 03:35:17;;;;;;;16.20;7.47;;;9.70;99.90;;;;;;5077205;28;20095;-71
2023/10/28 03:37:44;;;;;;;27.70;9.30;;;9.80;99.90;;;;;;5077145;28;20068;-71
2023/10/28 03:40:10;;;;;;;18.55;9.02;;;9.80;99.90;;;;;;5077132;28;20059;-71
2023/10/28 03:42:36;;;;;;;22.75;8.98;;;9.80;99.90;;;;;;5076967;28;20360;-71
2023/10/28 03:45:03;;;;;;;19.48;8.77;;;9.80;99.90;;;;;;5076832;28;20032;-71
2023/10/28 03:47:29;;;;;;;25.10;9.20;;;9.80;99.90;;;;;;5076828;28;20039;-71
2023/10/28 03:49:55;;;;;;;18.83;8.82;;;9.90;99.90;;;;;;5077255;28;20020;-71
2023/10/28 03:52:20;;;;;;;17.58;7.68;;;9.90;99.90;;;;;;5076628;28;20366;-72
2023/10/28 03:54:46;;;;;;;18.90;8.57;;;9.90;99.90;;;;;;5076394;28;20108;-71
2023/10/28 03:57:12;;;;;;;22.02;8.95;;;10.00;99.90;;;;;;5076556;28;20032;-71
2023/10/28 03:59:37;;;;;;;20.52;8.82;;;9.90;99.90;;;;;;5076773;28;20032;-71
2023/10/28 04:02:03;;;;;;;20.25;9.02;;;9.90;99.90;;;;;;5075634;28;20028;-72
2023/10/28 04:04:29;;;;;;;24.13;8.73;;;9.90;99.90;;;;;;5076477;28;20029;-71
2023/10/28 04:06:55;;;;;;;19.52;8.32;;;10.00;99.90;;;;;;5076450;28;20024;-71
2023/10/28 04:09:21;;;;;;;18.77;8.23;;;10.00;99.90;;;;;;5075745;28;20131;-71
2023/10/28 04:11:47;;;;;;;22.45;8.13;;;9.90;99.90;;;;;;5076346;28;20032;-71
2023/10/28 04:14:13;;;;;;;15.57;7.40;;;;;;;;;;5076482;28;20103;-71
2023/10/28 04:16:39;;;;;;;20.80;7.68;;;10.00;99.90;;;;;;5076049;28;20029;-71
2023/10/28 04:19:04;;;;;;;14.85;5.97;;;9.90;99.90;;;;;;5076449;28;20048;-72
2023/10/28 04:21:30;;;;;;;14.30;5.53;;;9.90;99.90;;;;;;5075782;28;20028;-72
2023/10/28 04:23:56;;;;;;;11.80;5.55;;;10.00;99.90;;;;;;5076003;28;20037;-72
2023/10/28 04:26:21;;;;;;;20.25;6.03;;;10.00;99.90;;;;;;5075343;28;20467;-72
2023/10/28 04:28:47;;;;;;;13.02;5.55;;;10.00;99.90;;;;;;5075777;28;20401;-72
2023/10/28 04:31:15;;;;;;;11.50;5.95;;;10.00;99.90;;;;;;5076142;28;20108;-72
2023/10/28 04:33:41;;;;;;;12.77;5.80;;;10.00;99.90;;;;;;5075857;28;20034;-71
2023/10/28 04:36:09;;;;;;;12.00;5.57;;;10.00;99.90;;;;;;5076145;28;20115;-72
2023/10/28 04:38:37;;;;;;;14.35;5.63;;;10.00;99.90;;;;;;5075990;28;20028;-72
2023/10/28 04:41:02;;;;;;;16.92;5.82;;;10.00;99.90;;;;;;5075276;28;20056;-73
2023/10/28 04:43:29;;;;;;;9.85;5.32;;;10.00;99.90;;;;;;5075961;28;20481;-72
2023/10/28 04:45:54;;;;;;;13.23;5.75;;;10.00;99.90;;;;;;5075853;28;20103;-72
2023/10/28 04:48:21;;;;;;;12.30;5.90;;;10.00;99.90;;;;;;5075545;28;20144;-71
2023/10/28 04:50:48;;;;;;;14.73;5.38;;;10.00;99.90;;;;;;5075109;28;20028;-71
2023/10/28 04:53:14;;;;;;;12.60;5.65;;;10.00;99.90;;;;;;5075358;28;20052;-71
2023/10/28 04:55:41;;;;;;;15.48;4.93;;;10.00;99.90;;;;;;5075150;28;20438;-71
2023/10/28 04:58:06;;;;;;;10.82;5.53;;;10.00;99.90;;;;;;5074927;28;20112;-71
2023/10/28 05:00:32;;;;;;;18.63;10.13;;;9.90;99.90;;;;;;5075492;28;20059;-71
2023/10/28 05:02:57;;;;;;;18.50;10.38;;;9.90;99.90;;;;;;5075538;28;20024;-71
2023/10/28 05:05:24;;;;;;;19.90;11.80;;;9.90;99.90;;;;;;5074898;28;20032;-72
2023/10/28 05:07:49;;;;;;;22.45;12.38;;;9.80;99.90;;;;;;5075227;28;20033;-72
2023/10/28 05:10:15;;;;;;;25.00;12.02;;;9.90;99.90;;;;;;5074968;28;20490;-71
2023/10/28 05:12:41;;;;;;;26.27;13.98;;;9.90;99.90;;;;;;5074552;28;20024;-72
2023/10/28 05:15:08;;;;;;;25.02;14.35;;;10.00;99.90;;;;;;5074414;28;20074;-72
2023/10/28 05:17:35;;;;;;;21.50;14.18;;;10.00;99.90;;;;;;5074406;28;20033;-72
2023/10/28 05:20:06;;;;;;;20.38;12.57;;;10.00;99.90;;;;;;5075282;28;20078;-72
2023/10/28 05:22:33;;;;;;;16.00;8.60;;;10.10;99.90;;;;;;5074615;28;20082;-72
2023/10/28 05:24:59;;;;;;;17.08;7.68;;;10.10;99.90;;;;;;5074815;28;20481;-72
2023/10/28 05:27:24;;;;;;;12.23;7.22;;;10.10;99.90;;;;;;5073660;28;20044;-72
2023/10/28 05:29:50;;;;;;;12.25;6.95;;;10.10;99.90;;;;;;5074262;28;20020;-72
2023/10/28 05:32:15;;;;;;;16.73;6.70;;;10.10;99.90;;;;;;5074015;28;20417;-73
2023/10/28 05:34:41;;;;;;;10.35;6.75;;;10.10;99.90;;;;;;5074276;28;20021;-73
2023/10/28 05:37:07;;;;;;;11.30;6.25;;;10.10;99.90;;;;;;5074496;28;20431;-73
2023/10/28 05:39:32;;;;;;;9.90;5.43;;;10.20;99.90;;;;;;5073681;28;20035;-73
2023/10/28 05:41:58;;;;;;;12.40;5.22;;;10.20;99.90;;;;;;5074646;28;20173;-73
2023/10/28 05:44:23;;;;;;;9.18;4.78;;;10.30;99.90;;;;;;5074150;28;20116;-73
2023/10/28 05:46:49;;;;;;;8.50;5.03;;;10.20;99.90;;;;;;5073475;28;20028;-73
2023/10/28 05:49:14;;;;;;;10.23;5.60;;;10.00;99.90;;;;;;5074428;28;20039;-74
2023/10/28 05:51:40;;;;;;;9.38;4.95;;;10.20;99.90;;;;;;5073820;28;20028;-73
2023/10/28 05:54:06;;;;;;;10.10;5.10;;;10.10;99.90;;;;;;5075249;28;20081;-74
2023/10/28 05:56:31;;;;;;;8.70;4.97;;;10.10;99.90;;;;;;5074432;28;20028;-74
2023/10/28 05:58:58;;;;;;;9.90;5.20;;;10.10;99.90;;;;;;5074531;28;20200;-73
2023/10/28 06:01:24;;;;;;;15.52;5.70;;;10.00;99.90;;;;;;5074118;28;20167;-73
2023/10/28 06:03:50;;;;;;;16.90;5.43;;;9.90;99.90;;;;;;5074185;28;20063;-73
2023/10/28 06:06:15;;;;;;;11.93;5.95;;;9.90;99.90;;;;;;5074078;28;20117;-73
2023/10/28 06:08:41;;;;;;;11.45;5.43;;;9.80;99.90;;;;;;5074003;28;20478;-72
2023/10/28 06:11:09;;;;;;;11.48;5.38;;;9.70;99.90;;;;;;5074395;28;20056;-72
2023/10/28 06:13:36;;;;;;;11.82;6.60;;;9.60;99.90;;;;;;5074097;28;20427;-72
2023/10/28 06:16:02;;;;;;;13.20;6.72;;;9.60;99.90;;;;;;5074220;28;20028;-73
2023/10/28 06:18:29;;;;;;;13.68;7.43;;;9.70;99.90;;;;;;5073621;28;20021;-72
2023/10/28 06:20:55;;;;;;;12.75;7.00;;;9.60;99.90;;;;;;5073651;28;20555;-72
2023/10/28 06:23:20;;;;;;;10.20;6.90;;;9.60;99.90;;;;;;5074109;28;20028;-72
2023/10/28 06:25:46;;;;;;;12.48;6.90;;;9.60;99.90;;;;;;5073680;28;20078;-72
2023/10/28 06:28:11;;;;;;;12.90;5.90;;;9.60;99.90;;;;;;5072896;28;20036;-72
2023/10/28 06:30:46;;;;;;;8.88;5.63;;;9.50;99.90;;;;;;5074157;28;20120;-72
2023/10/28 06:33:12;;;;;;;15.10;6.38;;;9.60;99.90;;;;;;5074166;28;20016;-72
2023/10/28 06:35:37;;;;;;;10.57;5.95;;;9.70;99.90;;;;;;5073687;28;20048;-73
2023/10/28 06:38:03;;;;;;;9.70;5.53;;;9.80;99.90;;;;;;5073641;28;20509;-72
2023/10/28 06:40:28;;;;;;;9.93;5.85;;;9.80;99.90;;;;;;5073856;28;20028;-73
2023/10/28 06:42:56;;;;;;;8.30;5.45;;;9.70;99.90;;;;;;5074809;28;20063;-73
2023/10/28 06:45:22;;;;;;;13.65;6.75;;;9.80;99.90;;;;;;5078226;28;20025;-74
2023/10/28 06:47:47;;;;;;;10.68;6.30;;;9.80;99.90;;;;;;5078191;28;20356;-74
2023/10/28 06:50:17;;;;;;;10.00;6.70;;;9.90;99.90;;;;;;5078484;28;20028;-74
2023/10/28 06:52:42;;;;;;;12.85;7.10;;;10.00;99.90;;;;;;5078170;28;20466;-74
2023/10/28 06:55:12;;;;;;;11.90;6.72;;;10.10;99.90;;;;;;5080642;28;20032;-74
2023/10/28 06:57:38;;;;;;;11.57;6.65;;;10.10;99.90;;;;;;5077975;28;20024;-74
2023/10/28 07:00:05;;;;;;;10.23;6.25;;;10.20;99.90;;;;;;5077802;28;20109;-75
2023/10/28 07:02:32;;;;;;;11.23;6.10;;;10.60;99.90;;;;;;5078441;28;20036;-75
2023/10/28 07:04:58;;;;;;;16.73;6.90;;;10.50;99.90;;;;;;5078517;28;20020;-74
2023/10/28 07:07:23;;;;;;;9.32;6.20;;;10.40;99.90;;;;;;5077269;28;20078;-74
2023/10/28 07:09:49;;;;;;;8.82;6.05;;;10.40;99.90;;;;;;5077724;28;20127;-74
2023/10/28 07:12:14;;;;;;;9.30;5.63;;;10.40;99.90;;;;;;5076370;28;20055;-74
2023/10/28 07:14:40;;;;;;;12.48;6.35;;;10.40;99.90;;;;;;5077183;28;20115;-74
2023/10/28 07:17:06;;;;;;;10.50;6.28;;;10.40;99.90;;;;;;5077589;28;20037;-74
2023/10/28 07:19:31;;;;;;;11.25;6.22;;;10.50;99.90;;;;;;5078398;28;20382;-74
2023/10/28 07:21:57;;;;;;;10.82;6.60;;;10.40;99.90;;;;;;5078452;28;20036;-75
2023/10/28 07:24:22;;;;;;;12.80;6.72;;;10.50;99.90;;;;;;5077978;28;20028;-75
2023/10/28 07:26:48;;;;;;;8.27;5.90;;;10.50;99.90;;;;;;5077533;28;20044;-74
2023/10/28 07:29:13;;;;;;;10.38;5.95;;;10.50;99.90;;;;;;5077591;28;20028;-74
2023/10/28 07:31:39;;;;;;;11.38;6.07;;;10.60;99.90;;;;;;5077173;28;20123;-74
2023/10/28 07:34:07;;;;;;;8.93;6.32;;;10.50;99.90;;;;;;5076601;28;20107;-74
2023/10/28 07:36:33;;;;;;;10.75;6.05;;;10.60;99.90;;;;;;5077328;28;20025;-73
2023/10/28 07:39:03;;;;;;;12.10;6.22;;;10.60;99.90;;;;;;5076870;28;20024;-74
2023/10/28 07:41:30;;;;;;;9.98;6.50;;;10.60;99.90;;;;;;5077145;28;20017;-74
2023/10/28 07:43:56;;;;;;;9.07;6.10;;;10.60;99.90;;;;;;5077039;28;20111;-74
2023/10/28 07:46:23;;;;;;;11.43;6.32;;;10.60;99.90;;;;;;5076246;28;20017;-74
2023/10/28 07:48:49;;;;;;;8.88;4.60;;;10.60;99.90;;;;;;5076931;28;20047;-75
2023/10/28 07:51:17;;;;;;;6.78;4.13;;;10.50;99.90;;;;;;5076293;28;20379;-73
2023/10/28 07:53:44;;;;;;;7.55;3.63;;;10.60;99.90;;;;;;5076042;28;20012;-73
2023/10/28 07:56:09;;;;;;;6.35;3.20;;;10.60;99.90;;;;;;5075578;28;20024;-73
2023/10/28 07:58:35;;;;;;;4.63;2.58;;;10.80;99.90;;;;;;5076671;28;20111;-73
2023/10/28 08:01:02;;;;;;;7.78;2.53;;;10.80;99.90;;;;;;5075847;28;20444;-74
2023/10/28 08:03:28;;;;;;;4.95;2.35;;;11.00;99.90;;;;;;5075839;28;20123;-73
2023/10/28 08:05:54;;;;;;;8.05;2.60;;;11.00;99.90;;;;;;5076594;28;20115;-73
2023/10/28 08:08:20;;;;;;;5.18;2.47;;;11.10;99.90;;;;;;5075385;28;20035;-74
2023/10/28 08:10:46;;;;;;;4.07;2.45;;;11.20;99.90;;;;;;5076674;28;20032;-73
2023/10/28 08:13:11;;;;;;;3.05;2.13;;;11.30;99.90;;;;;;5076103;28;20031;-74
2023/10/28 08:15:39;;;;;;;3.00;2.42;;;11.40;99.90;;;;;;5076205;28;20107;-73
2023/10/28 08:18:05;;;;;;;3.75;2.42;;;11.90;99.90;;;;;;5075992;28;20028;-73
2023/10/28 08:20:30;;;;;;;3.40;2.10;;;11.70;99.90;;;;;;5075595;28;20082;-73
2023/10/28 08:22:56;;;;;;;3.85;2.30;;;;;;;;;;5075642;28;20025;-73
2023/10/28 08:25:22;;;;;;;3.15;2.50;;;;;;;;;;5075582;28;20074;-73
2023/10/28 08:27:48;;;;;;;5.10;1.80;;;13.60;99.90;;;;;;5074910;28;20067;-73
2023/10/28 08:30:17;;;;;;;4.80;1.63;;;13.70;99.90;;;;;;5076109;28;20111;-72
2023/10/28 08:32:43;;;;;;;3.35;1.75;;;13.60;99.90;;;;;;5075732;28;20032;-73
2023/10/28 08:35:09;;;;;;;4.00;1.50;;;13.40;99.90;;;;;;5075545;28;20024;-73
2023/10/28 08:37:35;;;;;;;5.40;1.75;;;13.90;99.90;;;;;;5075427;28;20085;-72
2023/10/28 08:40:01;;;;;;;2.00;1.20;;;13.80;99.90;;;;;;5075932;28;20021;-72
2023/10/28 08:42:27;;;;;;;3.10;1.17;;;14.20;99.90;;;;;;5075670;28;20032;-72
2023/10/28 08:44:54;;;;;;;6.43;1.00;;;14.20;99.90;;;;;;5075419;28;20032;-72
2023/10/28 08:47:24;;;;;;;2.08;1.02;;;14.40;99.90;;;;;;5075341;28;20465;-73
2023/10/28 08:49:52;;;;;;;2.17;0.95;;;14.10;99.90;;;;;;5075818;28;20032;-72
2023/10/28 08:52:21;;;;;;;2.47;0.90;;;14.10;99.90;;;;;;5075431;28;20421;-72
2023/10/28 08:54:47;;;;;;;3.47;0.85;;;13.90;99.90;;;;;;5075371;28;20115;-72
2023/10/28 08:57:14;;;;;;;2.63;1.23;;;13.80;99.90;;;;;;5075681;28;20068;-72
2023/10/28 08:59:39;;;;;;;2.08;0.90;;;13.40;99.90;;;;;;5075304;28;20036;-72
2023/10/28 09:02:08;;;;;;;2.55;1.10;;;13.10;99.90;;;;;;5075193;28;20359;-72
2023/10/28 09:04:34;;;;;;;3.00;1.10;;;13.00;99.90;;;;;;5074954;28;20572;-72
2023/10/28 09:07:01;;;;;;;3.58;1.20;;;13.00;99.90;;;;;;5073674;28;20024;-72
2023/10/28 09:09:27;;;;;;;2.58;1.20;;;13.00;99.90;;;;;;5075306;28;20380;-72
2023/10/28 09:11:57;;;;;;;4.55;1.45;;;12.90;99.90;;;;;;5075289;28;20035;-72
2023/10/28 09:14:24;;;;;;;3.92;1.08;;;12.90;99.90;;;;;;5074750;28;20024;-72
2023/10/28 09:16:49;;;;;;;2.70;1.17;;;12.90;99.90;;;;;;5075205;28;20028;-73
2023/10/28 09:19:20;;;;;;;3.97;1.60;;;12.90;99.90;;;;;;5074817;28;20074;-73
2023/10/28 09:21:48;;;;;;;3.85;1.30;;;13.10;99.90;;;;;;5075134;28;20462;-72
2023/10/28 09:24:13;;;;;;;1.23;1.13;;;12.90;99.90;;;;;;5074775;28;20025;-72
2023/10/28 09:26:40;;;;;;;1.52;0.90;;;13.20;99.90;;;;;;5073836;28;20037;-74
2023/10/28 09:29:05;;;;;;;3.42;1.27;;;12.50;99.90;;;;;;5074431;28;20028;-72
2023/10/28 09:31:32;;;;;;;1.83;1.00;;;12.50;99.90;;;;;;5073985;28;20025;-72
2023/10/28 09:33:59;;;;;;;3.90;1.30;;;12.90;99.90;;;;;;5074573;28;20483;-72
2023/10/28 09:36:24;;;;;;;5.25;1.50;;;12.50;99.90;;;;;;5074887;28;20029;-72
2023/10/28 09:38:51;;;;;;;4.47;1.40;;;12.40;99.90;;;;;;5074399;28;20036;-72
2023/10/28 09:41:18;;;;;;;2.47;1.00;;;12.40;99.90;;;;;;5073947;28;20475;-72
2023/10/28 09:43:44;;;;;;;1.90;1.23;;;12.90;99.90;;;;;;5074385;28;20044;-74
2023/10/28 09:46:10;;;;;;;2.33;1.00;;;12.40;99.90;;;;;;5073363;28;20399;-72
2023/10/28 09:48:38;;;;;;;2.08;1.15;;;12.00;99.90;;;;;;5074133;28;20119;-72
2023/10/28 09:51:05;;;;;;;3.42;1.20;;;12.40;99.90;;;;;;5074331;28;20020;-72
2023/10/28 09:53:33;;;;;;;2.97;1.30;;;12.30;99.90;;;;;;5073998;28;20025;-72
2023/10/28 09:56:01;;;;;;;5.60;1.20;;;12.40;99.90;;;;;;5074143;28;20394;-73
2023/10/28 09:58:54;;;;;;;5.13;1.40;;;12.30;99.90;;;;;;5074422;28;20077;-72
2023/10/28 10:01:45;;;;;;;1.95;1.27;;;12.40;99.90;;;;;;5073599;28;20036;-71
2023/10/28 10:04:35;;;;;;;2.17;0.85;;;12.40;99.90;;;;;;5074383;28;20048;-71
2023/10/28 10:07:01;;;;;;;4.00;0.80;;;12.40;99.90;;;;;;5074249;28;20139;-73
2023/10/28 10:09:27;;;;;;;1.20;0.80;;;12.40;99.90;;;;;;5074293;28;20016;-72
2023/10/28 10:11:56;;;;;;;3.55;1.02;;;12.40;99.90;;;;;;5074254;28;20028;-71
2023/10/28 10:14:22;;;;;;;3.17;1.08;;;12.40;99.90;;;;;;5073952;28;20528;-72
2023/10/28 10:17:02;;;;;;;1.08;0.85;;;12.50;99.90;;;;;;5074242;28;20139;-72
2023/10/28 10:19:33;;;;;;;3.90;1.10;;;12.40;99.90;;;;;;5073475;28;20031;-72
2023/10/28 10:22:02;;;;;;;3.38;1.25;;;12.40;99.90;;;;;;5074197;28;20059;-73
2023/10/28 10:24:28;;;;;;;2.47;1.27;;;12.50;99.90;;;;;;5073645;28;20028;-72
2023/10/28 10:26:56;;;;;;;2.30;1.05;;;12.50;99.90;;;;;;5073374;28;20049;-72
2023/10/28 10:29:26;;;;;;;2.92;1.08;;;12.60;99.90;;;;;;5073398;28;20052;-72
2023/10/28 10:31:52;;;;;;;2.15;0.77;;;12.60;99.90;;;;;;5074067;28;20056;-72
2023/10/28 10:34:36;;;;;;;1.45;0.93;;;12.70;99.90;;;;;;5073834;28;20027;-72
2023/10/28 10:37:03;;;;;;;1.77;0.70;;;12.80;99.90;;;;;;5074188;28;20024;-72
2023/10/28 10:39:42;;;;;;;3.83;1.10;;;12.90;99.90;;;;;;5073744;28;20021;-73
2023/10/28 10:42:09;;;;;;;1.25;0.70;;;13.30;99.90;;;;;;5074082;28;20031;-72
2023/10/28 10:44:37;;;;;;;1.55;0.82;;;13.10;99.90;;;;;;5073521;28;20078;-72
2023/10/28 10:47:08;;;;;;;1.30;0.80;;;13.50;99.90;;;;;;5073382;28;20021;-72
2023/10/28 10:49:35;;;;;;;3.55;0.93;;;12.70;99.90;;;;;;5073486;28;20021;-72
2023/10/28 10:52:02;;;;;;;2.53;0.95;;;;;;;;;;5073970;28;20052;-72
2023/10/28 10:54:30;;;;;;;2.72;1.10;;;13.20;99.90;;;;;;5073271;28;20074;-71
2023/10/28 10:56:56;;;;;;;1.50;0.80;;;13.30;99.90;;;;;;5073430;28;20034;-72
2023/10/28 10:59:21;;;;;;;2.92;0.73;;;13.30;99.90;;;;;;5072676;28;20119;-72
2023/10/28 11:01:47;;;;;;;1.67;0.98;;;13.20;99.90;;;;;;5073809;28;20032;-72
2023/10/28 11:04:13;;;;;;;1.20;0.60;;;13.10;99.90;;;;;;5072996;28;20028;-71
2023/10/28 11:06:38;;;;;;;2.42;0.80;;;13.10;99.90;;;;;;5073788;28;20067;-71
2023/10/28 11:09:06;;;;;;;2.83;0.68;;;12.90;99.90;;;;;;5072792;28;20028;-72
2023/10/28 11:11:35;;;;;;;1.95;0.85;;;13.00;99.90;;;;;;5073078;28;20120;-71
2023/10/28 11:14:03;;;;;;;2.33;0.77;;;13.10;99.90;;;;;;5073487;28;20119;-71
2023/10/28 11:16:28;;;;;;;1.73;0.90;;;13.30;99.90;;;;;;5073478;28;20032;-72
2023/10/28 11:18:54;;;;;;;4.15;0.80;;;13.20;99.90;;;;;;5073230;28;20458;-72
2023/10/28 11:21:23;;;;;;;2.35;0.95;;;13.30;99.90;;;;;;5073464;28;20186;-72
2023/10/28 11:23:50;;;;;;;1.67;1.00;;;13.00;99.90;;;;;;5073693;28;20028;-72
2023/10/28 11:26:18;;;;;;;1.90;0.70;;;13.20;99.90;;;;;;5072918;28;20513;-72
2023/10/28 11:28:44;;;;;;;1.85;0.70;;;13.30;99.90;;;;;;5073157;28;20039;-72
2023/10/28 11:31:11;;;;;;;1.33;0.80;;;13.70;99.90;;;;;;5076290;28;20466;-72
2023/10/28 11:33:37;;;;;;;1.92;1.05;;;13.40;99.90;;;;;;5077213;28;20032;-72
2023/10/28 11:36:04;;;;;;;2.25;1.23;;;14.50;99.90;;;;;;5076792;28;20047;-72
2023/10/28 11:38:33;;;;;;;4.60;0.95;;;13.50;99.90;;;;;;5076838;28;20032;-72
2023/10/28 11:41:06;;;;;;;3.03;1.10;;;13.70;99.90;;;;;;5076836;28;20035;-72
2023/10/28 11:43:33;;;;;;;4.38;1.10;;;14.00;99.90;;;;;;5076557;28;20044;-72
2023/10/28 11:45:59;;;;;;;2.85;1.27;;;14.10;99.90;;;;;;5076809;28;20119;-72
2023/10/28 11:48:26;;;;;;;1.67;1.00;;;14.40;99.90;;;;;;5076424;28;20063;-72
2023/10/28 11:50:51;;;;;;;2.53;1.08;;;14.60;99.90;;;;;;5075644;28;20020;-72
2023/10/28 11:53:22;;;;;;;1.20;0.85;;;14.50;99.90;;;;;;5076343;28;20031;-72
2023/10/28 11:55:48;;;;;;;4.07;1.30;;;14.60;99.90;;;;;;5076712;28;20024;-72
2023/10/28 11:58:14;;;;;;;2.78;0.98;;;14.60;99.90;;;;;;5076715;28;20024;-72
2023/10/28 12:00:40;;;;;;;3.95;1.10;;;14.70;99.90;;;;;;5076707;28;20033;-72
2023/10/28 12:03:05;;;;;;;2.83;0.90;;;14.80;91.90;;;;;;5076327;28;20021;-72
2023/10/28 12:05:33;;;;;;;4.18;1.35;;;14.90;96.60;;;;;;5076665;28;20518;-72
2023/10/28 12:07:59;;;;;;;3.03;0.90;;;15.00;88.90;;;;;;5076166;28;20436;-72
2023/10/28 12:10:25;;;;;;;2.28;1.00;;;15.20;75.00;;;;;;5076644;28;20025;-72
2023/10/28 12:12:50;;;;;;;4.57;1.00;;;15.20;80.60;;;;;;5076570;28;20478;-72
2023/10/28 12:15:16;;;;;;;3.45;1.33;;;15.00;5.90;;;;;;5076295;28;20025;-72
2023/10/28 12:17:44;;;;;;;3.10;1.10;;;14.90;17.90;;;;;;5075844;28;20032;-73
2023/10/28 12:20:14;;;;;;;2.72;1.17;;;;;;;;;;5075731;28;20050;-72
2023/10/28 12:22:40;;;;;;;3.80;1.27;;;;;;;;;;5076009;28;20374;-72
2023/10/28 12:25:06;;;;;;;4.95;1.50;;;;;;;;;;5076067;28;20031;-73
2023/10/28 12:27:32;;;;;;;2.70;1.50;;;;;;;;;;5075127;28;20131;-72
2023/10/28 12:29:58;;;;;;;4.95;1.55;;;;;;;;;;5075949;28;20078;-72
2023/10/28 12:32:24;;;;;;;6.85;1.52;;;14.60;88.60;;;;;;5075917;28;20034;-73
2023/10/28 12:34:50;;;;;;;3.35;1.02;;;14.60;71.80;;;;;;5075871;28;20021;-72
2023/10/28 12:37:16;;;;;;;5.03;1.40;;;14.70;29.80;;;;;;5075600;28;20095;-73
2023/10/28 12:39:42;;;;;;;2.67;1.17;;;14.70;61.80;;;;;;5075992;28;20028;-72
2023/10/28 12:42:07;;;;;;;5.25;1.77;;;14.70;47.30;;;;;;5075451;28;20547;-73
2023/10/28 12:44:33;;;;;;;3.97;1.40;;;14.90;29.50;;;;;;5075942;28;20086;-72
2023/10/28 12:46:58;;;;;;;4.10;1.25;;;15.00;10.10;;;;;;5075778;28;20028;-72